sensor_id;sensor_type;location;lat;lon;timestamp;pressure;altitude;pressure_sealevel;temperature;humidity
5651;BME280;40241;52.684;9.758;2023-11-19T00:00:06;100682.91;;;6.42;65.24
5651;BME280;40241;52.684;9.758;2023-11-19T00:02:36;100674.94;;;6.44;65.20
5651;BME280;40241;52.684;9.758;2023-11-19T00:05:01;100674.19;;;6.43;65.32
5651;BME280;40241;52.684;9.758;2023-11-19T00:07:26;100661.94;;;6.44;65.31
5651;BME280;40241;52.684;9.758;2023-11-19T00:09:52;100644.50;;;6.47;65.18
5651;BME280;40241;52.684;9.758;2023-11-19T00:12:17;100639.50;;;6.46;65.13
5651;BME280;40241;52.684;9.758;2023-11-19T00:14:43;100645.72;;;6.46;65.30
5651;BME280;40241;52.684;9.758;2023-11-19T00:17:09;100654.22;;;6.48;65.31
5651;BME280;40241;52.684;9.758;2023-11-19T00:19:34;100644.00;;;6.49;65.45
5651;BME280;40241;52.684;9.758;2023-11-19T00:22:00;100638.28;;;6.52;65.32
5651;BME280;40241;52.684;9.758;2023-11-19T00:24:28;100627.81;;;6.56;65.30
5651;BME280;40241;52.684;9.758;2023-11-19T00:26:53;100625.34;;;6.58;65.21
5651;BME280;40241;52.684;9.758;2023-11-19T00:29:19;100605.84;;;6.56;65.29
5651;BME280;40241;52.684;9.758;2023-11-19T00:31:45;100597.59;;;6.56;65.37
5651;BME280;40241;52.684;9.758;2023-11-19T00:34:10;100592.84;;;6.57;65.30
5651;BME280;40241;52.684;9.758;2023-11-19T00:36:36;100592.09;;;6.56;65.21
5651;BME280;40241;52.684;9.758;2023-11-19T00:39:01;100576.81;;;6.55;65.54
5651;BME280;40241;52.684;9.758;2023-11-19T00:41:27;100565.38;;;6.57;65.49
5651;BME280;40241;52.684;9.758;2023-11-19T00:43:52;100569.41;;;6.61;65.32
5651;BME280;40241;52.684;9.758;2023-11-19T00:46:17;100565.66;;;6.64;65.58
5651;BME280;40241;52.684;9.758;2023-11-19T00:48:43;100552.19;;;6.66;65.50
5651;BME280;40241;52.684;9.758;2023-11-19T00:51:08;100542.72;;;6.67;65.45
5651;BME280;40241;52.684;9.758;2023-11-19T00:53:33;100545.94;;;6.66;65.45
5651;BME280;40241;52.684;9.758;2023-11-19T00:55:59;100550.97;;;6.67;65.38
5651;BME280;40241;52.684;9.758;2023-11-19T00:58:25;100543.94;;;6.66;65.52
5651;BME280;40241;52.684;9.758;2023-11-19T01:00:50;100552.94;;;6.67;65.62
5651;BME280;40241;52.684;9.758;2023-11-19T01:03:15;100546.19;;;6.68;65.81
5651;BME280;40241;52.684;9.758;2023-11-19T01:05:41;100534.47;;;6.73;65.67
5651;BME280;40241;52.684;9.758;2023-11-19T01:08:07;100526.75;;;6.77;65.60
5651;BME280;40241;52.684;9.758;2023-11-19T01:10:33;100530.25;;;6.77;65.54
5651;BME280;40241;52.684;9.758;2023-11-19T01:12:59;100528.25;;;6.78;65.68
5651;BME280;40241;52.684;9.758;2023-11-19T01:15:24;100518.75;;;6.79;65.59
5651;BME280;40241;52.684;9.758;2023-11-19T01:17:50;100520.28;;;6.80;65.50
5651;BME280;40241;52.684;9.758;2023-11-19T01:20:15;100513.03;;;6.82;65.67
5651;BME280;40241;52.684;9.758;2023-11-19T01:22:40;100498.78;;;6.84;65.76
5651;BME280;40241;52.684;9.758;2023-11-19T01:25:06;100512.03;;;6.85;65.61
5651;BME280;40241;52.684;9.758;2023-11-19T01:27:32;100501.31;;;6.87;65.64
5651;BME280;40241;52.684;9.758;2023-11-19T01:30:00;100481.06;;;6.90;65.68
5651;BME280;40241;52.684;9.758;2023-11-19T01:32:28;100479.31;;;6.87;65.76
5651;BME280;40241;52.684;9.758;2023-11-19T01:34:54;100480.81;;;6.88;65.68
5651;BME280;40241;52.684;9.758;2023-11-19T01:37:19;100479.56;;;6.89;65.86
5651;BME280;40241;52.684;9.758;2023-11-19T01:39:44;100475.34;;;6.94;65.86
5651;BME280;40241;52.684;9.758;2023-11-19T01:42:10;100462.56;;;6.96;65.73
5651;BME280;40241;52.684;9.758;2023-11-19T01:44:38;100467.84;;;7.00;65.59
5651;BME280;40241;52.684;9.758;2023-11-19T01:47:04;100472.84;;;7.01;65.58
5651;BME280;40241;52.684;9.758;2023-11-19T01:49:32;100461.34;;;7.03;65.68
5651;BME280;40241;52.684;9.758;2023-11-19T01:51:58;100465.88;;;7.06;65.74
5651;BME280;40241;52.684;9.758;2023-11-19T01:54:24;100444.88;;;7.09;65.71
5651;BME280;40241;52.684;9.758;2023-11-19T01:56:50;100445.38;;;7.13;65.62
5651;BME280;40241;52.684;9.758;2023-11-19T01:59:17;100444.38;;;7.16;65.62
5651;BME280;40241;52.684;9.758;2023-11-19T02:01:43;100428.63;;;7.16;65.72
5651;BME280;40241;52.684;9.758;2023-11-19T02:04:08;100425.38;;;7.18;65.59
5651;BME280;40241;52.684;9.758;2023-11-19T02:06:37;100412.63;;;7.20;65.63
5651;BME280;40241;52.684;9.758;2023-11-19T02:09:04;100419.63;;;7.21;65.63
5651;BME280;40241;52.684;9.758;2023-11-19T02:11:33;100419.88;;;7.23;65.65
5651;BME280;40241;52.684;9.758;2023-11-19T02:14:00;100412.63;;;7.26;65.52
5651;BME280;40241;52.684;9.758;2023-11-19T02:16:25;100414.16;;;7.27;65.66
5651;BME280;40241;52.684;9.758;2023-11-19T02:18:50;100408.88;;;7.29;65.78
5651;BME280;40241;52.684;9.758;2023-11-19T02:21:16;100416.63;;;7.30;65.77
5651;BME280;40241;52.684;9.758;2023-11-19T02:23:42;100400.38;;;7.32;65.59
5651;BME280;40241;52.684;9.758;2023-11-19T02:26:44;100389.38;;;7.32;66.00
5651;BME280;40241;52.684;9.758;2023-11-19T02:29:12;100383.34;;;7.34;65.85
5651;BME280;40241;52.684;9.758;2023-11-19T02:31:38;100376.88;;;7.37;65.74
5651;BME280;40241;52.684;9.758;2023-11-19T02:34:03;100370.84;;;7.38;65.69
5651;BME280;40241;52.684;9.758;2023-11-19T02:36:29;100364.34;;;7.41;65.80
5651;BME280;40241;52.684;9.758;2023-11-19T02:38:54;100369.59;;;7.45;65.81
5651;BME280;40241;52.684;9.758;2023-11-19T02:41:20;100363.84;;;7.48;65.93
5651;BME280;40241;52.684;9.758;2023-11-19T02:43:45;100366.34;;;7.52;65.87
5651;BME280;40241;52.684;9.758;2023-11-19T02:46:13;100345.84;;;7.53;65.80
5651;BME280;40241;52.684;9.758;2023-11-19T02:48:39;100344.06;;;7.55;65.77
5651;BME280;40241;52.684;9.758;2023-11-19T02:51:04;100334.06;;;7.52;65.99
5651;BME280;40241;52.684;9.758;2023-11-19T02:53:31;100332.06;;;7.53;66.33
5651;BME280;40241;52.684;9.758;2023-11-19T02:55:57;100333.81;;;7.56;66.04
5651;BME280;40241;52.684;9.758;2023-11-19T02:58:43;100321.28;;;7.60;66.21
5651;BME280;40241;52.684;9.758;2023-11-19T03:01:10;100318.03;;;7.62;66.14
5651;BME280;40241;52.684;9.758;2023-11-19T03:03:44;100314.50;;;7.67;66.43
5651;BME280;40241;52.684;9.758;2023-11-19T03:06:19;100308.75;;;7.70;66.33
5651;BME280;40241;52.684;9.758;2023-11-19T03:08:44;100306.75;;;7.76;66.32
5651;BME280;40241;52.684;9.758;2023-11-19T03:11:09;100299.47;;;7.79;66.18
5651;BME280;40241;52.684;9.758;2023-11-19T03:13:35;100303.97;;;7.82;66.39
5651;BME280;40241;52.684;9.758;2023-11-19T03:16:00;100307.94;;;7.87;66.38
5651;BME280;40241;52.684;9.758;2023-11-19T03:18:25;100304.94;;;7.90;66.52
5651;BME280;40241;52.684;9.758;2023-11-19T03:20:52;100297.91;;;7.95;66.63
5651;BME280;40241;52.684;9.758;2023-11-19T03:23:17;100298.91;;;7.97;66.35
5651;BME280;40241;52.684;9.758;2023-11-19T03:25:42;100301.41;;;8.01;66.72
5651;BME280;40241;52.684;9.758;2023-11-19T03:28:08;100294.63;;;8.07;66.67
5651;BME280;40241;52.684;9.758;2023-11-19T03:30:34;100299.84;;;8.11;66.51
5651;BME280;40241;52.684;9.758;2023-11-19T03:32:59;100294.56;;;8.13;66.59
5651;BME280;40241;52.684;9.758;2023-11-19T03:35:26;100290.31;;;8.17;66.50
5651;BME280;40241;52.684;9.758;2023-11-19T03:37:53;100280.81;;;8.18;66.57
5651;BME280;40241;52.684;9.758;2023-11-19T03:40:18;100269.78;;;8.18;66.70
5651;BME280;40241;52.684;9.758;2023-11-19T03:42:45;100277.53;;;8.20;66.84
5651;BME280;40241;52.684;9.758;2023-11-19T03:45:10;100272.28;;;8.22;66.75
5651;BME280;40241;52.684;9.758;2023-11-19T03:47:36;100274.50;;;8.23;66.95
5651;BME280;40241;52.684;9.758;2023-11-19T03:50:02;100277.25;;;8.29;67.16
5651;BME280;40241;52.684;9.758;2023-11-19T03:52:28;100283.47;;;8.35;67.11
5651;BME280;40241;52.684;9.758;2023-11-19T03:54:54;100279.19;;;8.39;67.12
5651;BME280;40241;52.684;9.758;2023-11-19T03:57:21;100281.91;;;8.45;67.24
5651;BME280;40241;52.684;9.758;2023-11-19T03:59:46;100272.84;;;8.50;67.26
5651;BME280;40241;52.684;9.758;2023-11-19T04:02:12;100275.81;;;8.58;67.18
5651;BME280;40241;52.684;9.758;2023-11-19T04:04:37;100273.78;;;8.64;67.29
5651;BME280;40241;52.684;9.758;2023-11-19T04:07:04;100276.00;;;8.71;67.37
5651;BME280;40241;52.684;9.758;2023-11-19T04:09:29;100274.16;;;8.79;67.40
5651;BME280;40241;52.684;9.758;2023-11-19T04:11:56;100260.84;;;8.83;67.37
5651;BME280;40241;52.684;9.758;2023-11-19T04:14:21;100264.06;;;8.87;67.28
5651;BME280;40241;52.684;9.758;2023-11-19T04:16:46;100248.50;;;8.89;67.52
5651;BME280;40241;52.684;9.758;2023-11-19T04:19:12;100256.22;;;8.96;67.82
5651;BME280;40241;52.684;9.758;2023-11-19T04:21:40;100261.41;;;9.05;67.86
5651;BME280;40241;52.684;9.758;2023-11-19T04:24:07;100257.34;;;9.12;67.89
5651;BME280;40241;52.684;9.758;2023-11-19T04:26:32;100269.81;;;9.18;67.97
5651;BME280;40241;52.684;9.758;2023-11-19T04:28:58;100265.22;;;9.26;67.86
5651;BME280;40241;52.684;9.758;2023-11-19T04:31:28;100270.19;;;9.34;68.17
5651;BME280;40241;52.684;9.758;2023-11-19T04:33:54;100264.59;;;9.39;67.91
5651;BME280;40241;52.684;9.758;2023-11-19T04:36:20;100260.50;;;9.46;68.12
5651;BME280;40241;52.684;9.758;2023-11-19T04:38:49;100264.72;;;9.52;68.17
5651;BME280;40241;52.684;9.758;2023-11-19T04:41:14;100265.69;;;9.60;68.11
5651;BME280;40241;52.684;9.758;2023-11-19T04:43:39;100266.13;;;9.64;68.23
5651;BME280;40241;52.684;9.758;2023-11-19T04:46:05;100251.47;;;9.69;68.46
5651;BME280;40241;52.684;9.758;2023-11-19T04:48:30;100263.97;;;9.76;68.46
5651;BME280;40241;52.684;9.758;2023-11-19T04:50:56;100252.88;;;9.81;68.32
5651;BME280;40241;52.684;9.758;2023-11-19T04:53:21;100258.84;;;9.85;68.37
5651;BME280;40241;52.684;9.758;2023-11-19T04:55:46;100254.50;;;9.90;68.52
5651;BME280;40241;52.684;9.758;2023-11-19T04:58:12;100253.72;;;9.95;68.45
5651;BME280;40241;52.684;9.758;2023-11-19T05:00:38;100251.38;;;9.99;68.53
5651;BME280;40241;52.684;9.758;2023-11-19T05:03:03;100245.78;;;10.04;68.54
5651;BME280;40241;52.684;9.758;2023-11-19T05:05:29;100245.50;;;10.08;68.43
5651;BME280;40241;52.684;9.758;2023-11-19T05:07:54;100243.94;;;10.13;68.74
5651;BME280;40241;52.684;9.758;2023-11-19T05:10:20;100231.81;;;10.16;68.43
5651;BME280;40241;52.684;9.758;2023-11-19T05:12:45;100233.00;;;10.20;68.49
5651;BME280;40241;52.684;9.758;2023-11-19T05:15:11;100228.22;;;10.21;68.44
5651;BME280;40241;52.684;9.758;2023-11-19T05:17:37;100234.19;;;10.25;68.71
5651;BME280;40241;52.684;9.758;2023-11-19T05:20:02;100222.84;;;10.28;68.77
5651;BME280;40241;52.684;9.758;2023-11-19T05:22:28;100222.53;;;10.32;68.63
5651;BME280;40241;52.684;9.758;2023-11-19T05:24:53;100215.44;;;10.36;68.58
5651;BME280;40241;52.684;9.758;2023-11-19T05:27:19;100215.13;;;10.40;68.62
5651;BME280;40241;52.684;9.758;2023-11-19T05:29:45;100205.78;;;10.43;68.54
5651;BME280;40241;52.684;9.758;2023-11-19T05:32:10;100208.56;;;10.43;68.47
5651;BME280;40241;52.684;9.758;2023-11-19T05:34:36;100210.56;;;10.42;68.68
5651;BME280;40241;52.684;9.758;2023-11-19T05:37:01;100212.81;;;10.44;68.62
5651;BME280;40241;52.684;9.758;2023-11-19T05:39:28;100220.06;;;10.47;68.64
5651;BME280;40241;52.684;9.758;2023-11-19T05:41:53;100219.53;;;10.48;68.97
5651;BME280;40241;52.684;9.758;2023-11-19T05:44:19;100225.81;;;10.49;68.68
5651;BME280;40241;52.684;9.758;2023-11-19T05:46:44;100216.47;;;10.52;68.78
5651;BME280;40241;52.684;9.758;2023-11-19T05:49:11;100212.63;;;10.55;68.70
5651;BME280;40241;52.684;9.758;2023-11-19T05:51:39;100211.59;;;10.58;68.80
5651;BME280;40241;52.684;9.758;2023-11-19T05:54:09;100203.50;;;10.60;68.75
5651;BME280;40241;52.684;9.758;2023-11-19T05:56:35;100207.03;;;10.60;68.69
5651;BME280;40241;52.684;9.758;2023-11-19T05:59:01;100207.25;;;10.62;68.69
5651;BME280;40241;52.684;9.758;2023-11-19T06:01:31;100200.63;;;10.65;68.54
5651;BME280;40241;52.684;9.758;2023-11-19T06:03:56;100200.63;;;10.65;68.70
5651;BME280;40241;52.684;9.758;2023-11-19T06:06:21;100203.66;;;10.67;68.84
5651;BME280;40241;52.684;9.758;2023-11-19T06:08:47;100205.13;;;10.68;68.83
5651;BME280;40241;52.684;9.758;2023-11-19T06:11:12;100207.34;;;10.70;68.81
5651;BME280;40241;52.684;9.758;2023-11-19T06:13:44;100219.41;;;10.72;68.89
5651;BME280;40241;52.684;9.758;2023-11-19T06:16:09;100224.94;;;10.72;69.00
5651;BME280;40241;52.684;9.758;2023-11-19T06:18:36;100224.19;;;10.72;69.02
5651;BME280;40241;52.684;9.758;2023-11-19T06:21:02;100228.66;;;10.75;69.00
5651;BME280;40241;52.684;9.758;2023-11-19T06:23:27;100231.44;;;10.75;69.20
5651;BME280;40241;52.684;9.758;2023-11-19T06:25:52;100233.66;;;10.76;69.16
5651;BME280;40241;52.684;9.758;2023-11-19T06:28:18;100233.16;;;10.78;69.08
5651;BME280;40241;52.684;9.758;2023-11-19T06:30:43;100234.88;;;10.81;69.00
5651;BME280;40241;52.684;9.758;2023-11-19T06:33:09;100238.94;;;10.80;69.22
5651;BME280;40241;52.684;9.758;2023-11-19T06:35:34;100234.88;;;10.81;69.25
5651;BME280;40241;52.684;9.758;2023-11-19T06:38:04;100238.81;;;10.86;69.22
5651;BME280;40241;52.684;9.758;2023-11-19T06:40:30;100243.84;;;10.87;69.23
5651;BME280;40241;52.684;9.758;2023-11-19T06:42:56;100247.56;;;10.90;69.25
5651;BME280;40241;52.684;9.758;2023-11-19T06:45:21;100245.75;;;10.92;69.09
5651;BME280;40241;52.684;9.758;2023-11-19T06:47:47;100252.28;;;10.95;69.10
5651;BME280;40241;52.684;9.758;2023-11-19T06:50:12;100257.28;;;10.96;69.07
5651;BME280;40241;52.684;9.758;2023-11-19T06:52:37;100261.75;;;10.99;68.90
5651;BME280;40241;52.684;9.758;2023-11-19T06:55:04;100260.50;;;11.00;69.08
5651;BME280;40241;52.684;9.758;2023-11-19T06:57:29;100262.72;;;11.02;68.91
5651;BME280;40241;52.684;9.758;2023-11-19T06:59:57;100264.97;;;11.03;68.95
5651;BME280;40241;52.684;9.758;2023-11-19T07:02:22;100276.78;;;11.04;69.03
5651;BME280;40241;52.684;9.758;2023-11-19T07:04:48;100262.94;;;11.04;68.95
5651;BME280;40241;52.684;9.758;2023-11-19T07:07:13;100260.16;;;11.04;68.98
5651;BME280;40241;52.684;9.758;2023-11-19T07:09:40;100257.41;;;11.04;69.00
5651;BME280;40241;52.684;9.758;2023-11-19T07:12:05;100258.16;;;11.04;68.92
5651;BME280;40241;52.684;9.758;2023-11-19T07:14:31;100259.13;;;11.07;68.82
5651;BME280;40241;52.684;9.758;2023-11-19T07:16:56;100261.56;;;11.10;68.81
5651;BME280;40241;52.684;9.758;2023-11-19T07:19:22;100268.59;;;11.11;68.79
5651;BME280;40241;52.684;9.758;2023-11-19T07:21:47;100270.09;;;11.12;68.85
5651;BME280;40241;52.684;9.758;2023-11-19T07:24:13;100269.34;;;11.12;68.67
5651;BME280;40241;52.684;9.758;2023-11-19T07:26:46;100276.38;;;11.13;68.87
5651;BME280;40241;52.684;9.758;2023-11-19T07:29:12;100268.59;;;11.11;68.72
5651;BME280;40241;52.684;9.758;2023-11-19T07:31:37;100273.41;;;11.11;68.90
5651;BME280;40241;52.684;9.758;2023-11-19T07:34:03;100274.13;;;11.11;68.89
5651;BME280;40241;52.684;9.758;2023-11-19T07:36:30;100273.81;;;11.15;68.78
5651;BME280;40241;52.684;9.758;2023-11-19T07:38:56;100277.56;;;11.17;68.82
5651;BME280;40241;52.684;9.758;2023-11-19T07:41:22;100279.25;;;11.20;68.68
5651;BME280;40241;52.684;9.758;2023-11-19T07:43:48;100285.75;;;11.23;68.67
5651;BME280;40241;52.684;9.758;2023-11-19T07:46:14;100286.50;;;11.23;68.60
5651;BME280;40241;52.684;9.758;2023-11-19T07:48:40;100293.53;;;11.24;68.48
5651;BME280;40241;52.684;9.758;2023-11-19T07:51:06;100289.28;;;11.23;68.46
5651;BME280;40241;52.684;9.758;2023-11-19T07:53:31;100286.50;;;11.23;68.45
5651;BME280;40241;52.684;9.758;2023-11-19T07:55:58;100297.59;;;11.23;68.50
5651;BME280;40241;52.684;9.758;2023-11-19T07:58:25;100288.75;;;11.25;68.53
5651;BME280;40241;52.684;9.758;2023-11-19T08:00:51;100289.50;;;11.25;68.56
5651;BME280;40241;52.684;9.758;2023-11-19T08:03:17;100288.97;;;11.27;68.59
5651;BME280;40241;52.684;9.758;2023-11-19T08:05:44;100281.94;;;11.26;68.54
5651;BME280;40241;52.684;9.758;2023-11-19T08:08:10;100293.53;;;11.24;68.64
5651;BME280;40241;52.684;9.758;2023-11-19T08:10:35;100288.25;;;11.26;68.56
5651;BME280;40241;52.684;9.758;2023-11-19T08:13:00;100285.69;;;11.28;68.45
5651;BME280;40241;52.684;9.758;2023-11-19T08:15:26;100284.94;;;11.28;68.49
5651;BME280;40241;52.684;9.758;2023-11-19T08:17:51;100291.94;;;11.29;68.33
5651;BME280;40241;52.684;9.758;2023-11-19T08:20:17;100295.47;;;11.29;68.45
5651;BME280;40241;52.684;9.758;2023-11-19T08:22:42;100288.13;;;11.32;68.34
5651;BME280;40241;52.684;9.758;2023-11-19T08:25:08;100299.19;;;11.32;68.29
5651;BME280;40241;52.684;9.758;2023-11-19T08:27:33;100299.97;;;11.32;68.29
5651;BME280;40241;52.684;9.758;2023-11-19T08:29:59;100295.16;;;11.33;68.20
5651;BME280;40241;52.684;9.758;2023-11-19T08:32:25;100295.69;;;11.31;68.18
5651;BME280;40241;52.684;9.758;2023-11-19T08:34:50;100289.94;;;11.29;68.15
5651;BME280;40241;52.684;9.758;2023-11-19T08:37:16;100299.53;;;11.28;68.17
5651;BME280;40241;52.684;9.758;2023-11-19T08:39:46;100302.81;;;11.27;68.15
5651;BME280;40241;52.684;9.758;2023-11-19T08:42:11;100302.09;;;11.26;68.12
5651;BME280;40241;52.684;9.758;2023-11-19T08:44:37;100307.63;;;11.26;68.19
5651;BME280;40241;52.684;9.758;2023-11-19T08:47:02;100307.09;;;11.28;67.93
5651;BME280;40241;52.684;9.758;2023-11-19T08:49:28;100313.81;;;11.32;67.86
5651;BME280;40241;52.684;9.758;2023-11-19T08:51:53;100317.00;;;11.36;67.82
5651;BME280;40241;52.684;9.758;2023-11-19T08:54:18;100317.44;;;11.40;67.74
5651;BME280;40241;52.684;9.758;2023-11-19T08:56:45;100323.41;;;11.44;67.68
5651;BME280;40241;52.684;9.758;2023-11-19T08:59:10;100317.56;;;11.48;67.50
5651;BME280;40241;52.684;9.758;2023-11-19T09:01:36;100324.28;;;11.52;67.52
5651;BME280;40241;52.684;9.758;2023-11-19T09:04:01;100325.75;;;11.53;67.32
5651;BME280;40241;52.684;9.758;2023-11-19T09:06:26;100333.53;;;11.55;67.23
5651;BME280;40241;52.684;9.758;2023-11-19T09:08:52;100333.31;;;11.53;67.14
5651;BME280;40241;52.684;9.758;2023-11-19T09:11:18;100332.81;;;11.55;67.09
5651;BME280;40241;52.684;9.758;2023-11-19T09:13:43;100328.75;;;11.56;67.06
5651;BME280;40241;52.684;9.758;2023-11-19T09:16:11;100339.97;;;11.63;67.17
5651;BME280;40241;52.684;9.758;2023-11-19T09:18:37;100340.06;;;11.71;66.96
5651;BME280;40241;52.684;9.758;2023-11-19T09:21:02;100346.47;;;11.79;66.78
5651;BME280;40241;52.684;9.758;2023-11-19T09:23:28;100348.72;;;11.80;66.71
5651;BME280;40241;52.684;9.758;2023-11-19T09:25:55;100347.97;;;11.80;66.57
5651;BME280;40241;52.684;9.758;2023-11-19T09:28:21;100349.25;;;11.79;66.39
5651;BME280;40241;52.684;9.758;2023-11-19T09:30:46;100354.03;;;11.78;66.48
5651;BME280;40241;52.684;9.758;2023-11-19T09:33:12;100361.81;;;11.80;66.44
5651;BME280;40241;52.684;9.758;2023-11-19T09:35:37;100368.94;;;11.75;66.29
5651;BME280;40241;52.684;9.758;2023-11-19T09:38:02;100376.09;;;11.71;66.31
5651;BME280;40241;52.684;9.758;2023-11-19T09:40:30;100377.66;;;11.66;66.28
5651;BME280;40241;52.684;9.758;2023-11-19T09:42:56;100384.59;;;11.60;66.64
5651;BME280;40241;52.684;9.758;2023-11-19T09:45:23;100379.81;;;11.60;66.65
5651;BME280;40241;52.684;9.758;2023-11-19T09:47:52;100379.03;;;11.60;66.56
5651;BME280;40241;52.684;9.758;2023-11-19T09:50:19;100395.47;;;11.58;66.57
5651;BME280;40241;52.684;9.758;2023-11-19T09:52:46;100386.94;;;11.56;66.59
5651;BME280;40241;52.684;9.758;2023-11-19T09:55:11;100385.22;;;11.52;66.75
5651;BME280;40241;52.684;9.758;2023-11-19T09:57:41;100377.66;;;11.53;66.72
5651;BME280;40241;52.684;9.758;2023-11-19T10:00:09;100368.63;;;11.52;66.79
5651;BME280;40241;52.684;9.758;2023-11-19T10:02:37;100366.88;;;11.49;66.48
5651;BME280;40241;52.684;9.758;2023-11-19T10:05:05;100386.34;;;11.44;66.84
5651;BME280;40241;52.684;9.758;2023-11-19T10:07:32;100373.00;;;11.29;66.72
5651;BME280;40241;52.684;9.758;2023-11-19T10:10:01;100371.50;;;11.15;66.89
5651;BME280;40241;52.684;9.758;2023-11-19T10:12:29;100370.81;;;11.09;67.02
5651;BME280;40241;52.684;9.758;2023-11-19T10:14:56;100366.03;;;11.10;67.12
5651;BME280;40241;52.684;9.758;2023-11-19T10:17:35;100358.91;;;11.14;67.00
5651;BME280;40241;52.684;9.758;2023-11-19T10:20:01;100360.84;;;11.19;66.97
5651;BME280;40241;52.684;9.758;2023-11-19T10:22:27;100361.19;;;11.29;66.90
5651;BME280;40241;52.684;9.758;2023-11-19T10:24:53;100362.81;;;11.37;66.92
5651;BME280;40241;52.684;9.758;2023-11-19T10:27:18;100359.19;;;11.42;66.96
5651;BME280;40241;52.684;9.758;2023-11-19T10:29:47;100357.94;;;11.43;66.83
5651;BME280;40241;52.684;9.758;2023-11-19T10:32:14;100359.63;;;11.46;66.99
5651;BME280;40241;52.684;9.758;2023-11-19T10:34:42;100359.63;;;11.46;66.91
5651;BME280;40241;52.684;9.758;2023-11-19T10:37:08;100358.56;;;11.49;66.88
5651;BME280;40241;52.684;9.758;2023-11-19T10:39:53;100364.66;;;11.48;66.83
5651;BME280;40241;52.684;9.758;2023-11-19T10:42:22;100355.28;;;11.51;66.98
5651;BME280;40241;52.684;9.758;2023-11-19T10:44:48;100359.75;;;11.54;66.92
5651;BME280;40241;52.684;9.758;2023-11-19T10:47:14;100356.88;;;11.60;66.94
5651;BME280;40241;52.684;9.758;2023-11-19T10:49:40;100355.84;;;11.63;66.80
5651;BME280;40241;52.684;9.758;2023-11-19T10:52:08;100354.53;;;11.64;66.81
5651;BME280;40241;52.684;9.758;2023-11-19T10:54:34;100356.03;;;11.65;66.83
5651;BME280;40241;52.684;9.758;2023-11-19T10:57:01;100362.34;;;11.65;66.79
5651;BME280;40241;52.684;9.758;2023-11-19T10:59:30;100358.50;;;11.68;66.66
5651;BME280;40241;52.684;9.758;2023-11-19T11:01:56;100354.44;;;11.69;66.87
5651;BME280;40241;52.684;9.758;2023-11-19T11:04:25;100344.13;;;11.70;66.74
5651;BME280;40241;52.684;9.758;2023-11-19T11:06:54;100345.59;;;11.71;66.68
5651;BME280;40241;52.684;9.758;2023-11-19T11:09:21;100343.78;;;11.73;66.64
5651;BME280;40241;52.684;9.758;2023-11-19T11:11:47;100339.97;;;11.76;66.81
5651;BME280;40241;52.684;9.758;2023-11-19T11:14:13;100342.63;;;11.82;66.65
5651;BME280;40241;52.684;9.758;2023-11-19T11:16:46;100342.31;;;11.85;66.49
5651;BME280;40241;52.684;9.758;2023-11-19T11:19:11;100339.75;;;11.87;66.52
5651;BME280;40241;52.684;9.758;2023-11-19T11:21:39;100348.19;;;11.95;66.25
5651;BME280;40241;52.684;9.758;2023-11-19T11:24:11;100338.50;;;12.01;66.51
5651;BME280;40241;52.684;9.758;2023-11-19T11:32:34;100333.91;;;12.17;65.79
5651;BME280;40241;52.684;9.758;2023-11-19T11:38:07;100338.59;;;12.22;65.99
5651;BME280;40241;52.684;9.758;2023-11-19T11:40:34;100347.44;;;12.20;65.90
5651;BME280;40241;52.684;9.758;2023-11-19T11:42:59;100358.09;;;12.16;65.87
5651;BME280;40241;52.684;9.758;2023-11-19T11:45:40;100356.09;;;12.17;65.38
5651;BME280;40241;52.684;9.758;2023-11-19T11:48:19;100357.38;;;12.16;65.36
5651;BME280;40241;52.684;9.758;2023-11-19T11:50:54;100364.63;;;12.19;65.60
5651;BME280;40241;52.684;9.758;2023-11-19T11:53:21;100364.81;;;12.21;65.69
5651;BME280;40241;52.684;9.758;2023-11-19T11:58:19;100358.09;;;12.30;65.83
5651;BME280;40241;52.684;9.758;2023-11-19T12:00:46;100347.38;;;12.47;65.75
5651;BME280;40241;52.684;9.758;2023-11-19T12:03:12;100347.25;;;12.65;65.57
5651;BME280;40241;52.684;9.758;2023-11-19T12:05:42;100343.81;;;12.72;64.84
5651;BME280;40241;52.684;9.758;2023-11-19T12:08:09;100338.88;;;12.78;65.03
5651;BME280;40241;52.684;9.758;2023-11-19T12:10:46;100345.81;;;12.85;64.85
5651;BME280;40241;52.684;9.758;2023-11-19T12:13:13;100338.22;;;12.85;64.63
5651;BME280;40241;52.684;9.758;2023-11-19T12:18:30;100330.84;;;12.88;64.44
5651;BME280;40241;52.684;9.758;2023-11-19T12:20:59;100331.16;;;12.84;64.56
5651;BME280;40241;52.684;9.758;2023-11-19T12:23:31;100340.03;;;12.83;64.59
5651;BME280;40241;52.684;9.758;2023-11-19T12:25:58;100348.38;;;12.83;64.57
5651;BME280;40241;52.684;9.758;2023-11-19T12:28:24;100340.59;;;12.81;64.54
5651;BME280;40241;52.684;9.758;2023-11-19T12:30:52;100354.03;;;12.77;64.49
5651;BME280;40241;52.684;9.758;2023-11-19T12:33:18;100341.03;;;12.72;64.57
5651;BME280;40241;52.684;9.758;2023-11-19T12:35:45;100348.28;;;12.75;64.37
5651;BME280;40241;52.684;9.758;2023-11-19T12:38:19;100346.59;;;12.72;64.03
5651;BME280;40241;52.684;9.758;2023-11-19T12:40:46;100342.13;;;12.69;64.23
5651;BME280;40241;52.684;9.758;2023-11-19T12:43:21;100342.75;;;12.62;63.77
5651;BME280;40241;52.684;9.758;2023-11-19T12:45:46;100343.22;;;12.53;64.08
5651;BME280;40241;52.684;9.758;2023-11-19T12:48:11;100341.84;;;12.47;64.29
5651;BME280;40241;52.684;9.758;2023-11-19T12:50:54;100357.34;;;12.42;63.26
5651;BME280;40241;52.684;9.758;2023-11-19T12:53:20;100352.31;;;12.41;64.16
5651;BME280;40241;52.684;9.758;2023-11-19T12:55:46;100345.81;;;12.38;64.05
5651;BME280;40241;52.684;9.758;2023-11-19T13:01:06;100344.53;;;12.39;63.69
5651;BME280;40241;52.684;9.758;2023-11-19T13:03:36;100335.38;;;12.44;64.06
5651;BME280;40241;52.684;9.758;2023-11-19T13:06:07;100338.34;;;12.46;63.86
5651;BME280;40241;52.684;9.758;2023-11-19T13:08:47;100340.56;;;12.48;63.52
5651;BME280;40241;52.684;9.758;2023-11-19T13:11:34;100341.84;;;12.47;63.45
5651;BME280;40241;52.684;9.758;2023-11-19T13:14:04;100346.25;;;12.42;63.76
5651;BME280;40241;52.684;9.758;2023-11-19T13:16:30;100338.78;;;12.37;63.73
5651;BME280;40241;52.684;9.758;2023-11-19T13:18:57;100336.31;;;12.34;63.89